sensor_id;sensor_type;location;lat;lon;timestamp;pressure;altitude;pressure_sealevel;temperature
20730;BMP280;10526;50.850;12.928;2022-11-20T00:03:46;97449.34;;;-7.09
20730;BMP280;10526;50.850;12.928;2022-11-20T00:08:09;97449.91;;;-7.12
20730;BMP280;10526;50.850;12.928;2022-11-20T00:12:31;97461.03;;;-7.11
20730;BMP280;10526;50.850;12.928;2022-11-20T00:16:53;97454.47;;;-7.22
20730;BMP280;10526;50.850;12.928;2022-11-20T00:21:24;97450.91;;;-7.26
20730;BMP280;10526;50.850;12.928;2022-11-20T00:25:46;97451.41;;;-7.24
20730;BMP280;10526;50.850;12.928;2022-11-20T00:30:08;97452.28;;;-7.15
20730;BMP280;10526;50.850;12.928;2022-11-20T00:34:35;97440.25;;;-7.06
20730;BMP280;10526;50.850;12.928;2022-11-20T00:38:58;97447.91;;;-7.01
20730;BMP280;10526;50.850;12.928;2022-11-20T00:43:20;97446.50;;;-6.93
20730;BMP280;10526;50.850;12.928;2022-11-20T00:47:42;97451.13;;;-6.90
20730;BMP280;10526;50.850;12.928;2022-11-20T00:52:04;97462.03;;;-6.93
20730;BMP280;10526;50.850;12.928;2022-11-20T00:56:26;97462.03;;;-6.93
20730;BMP280;10526;50.850;12.928;2022-11-20T01:00:48;97457.81;;;-6.89
20730;BMP280;10526;50.850;12.928;2022-11-20T01:05:11;97456.00;;;-6.89
20730;BMP280;10526;50.850;12.928;2022-11-20T01:09:33;97448.00;;;-6.87
20730;BMP280;10526;50.850;12.928;2022-11-20T01:13:56;97445.94;;;-6.90
20730;BMP280;10526;50.850;12.928;2022-11-20T01:18:18;97444.22;;;-6.95
20730;BMP280;10526;50.850;12.928;2022-11-20T01:22:40;97438.63;;;-7.02
20730;BMP280;10526;50.850;12.928;2022-11-20T01:27:02;97442.22;;;-7.17
20730;BMP280;10526;50.850;12.928;2022-11-20T01:31:31;97438.38;;;-7.19
20730;BMP280;10526;50.850;12.928;2022-11-20T01:36:02;97430.69;;;-7.24
20730;BMP280;10526;50.850;12.928;2022-11-20T01:40:25;97429.72;;;-7.28
20730;BMP280;10526;50.850;12.928;2022-11-20T01:44:57;97412.09;;;-7.26
20730;BMP280;10526;50.850;12.928;2022-11-20T01:53:54;97416.81;;;-7.47
20730;BMP280;10526;50.850;12.928;2022-11-20T01:58:21;97410.59;;;-7.65
20730;BMP280;10526;50.850;12.928;2022-11-20T02:02:51;97418.72;;;-7.77
20730;BMP280;10526;50.850;12.928;2022-11-20T02:07:15;97415.72;;;-7.84
20730;BMP280;10526;50.850;12.928;2022-11-20T02:11:37;97422.06;;;-7.95
20730;BMP280;10526;50.850;12.928;2022-11-20T02:16:00;97407.41;;;-8.00
20730;BMP280;10526;50.850;12.928;2022-11-20T02:20:22;97409.56;;;-8.07
20730;BMP280;10526;50.850;12.928;2022-11-20T02:24:44;97408.78;;;-8.08
20730;BMP280;10526;50.850;12.928;2022-11-20T02:29:06;97405.91;;;-8.06
20730;BMP280;10526;50.850;12.928;2022-11-20T02:33:28;97401.09;;;-8.13
20730;BMP280;10526;50.850;12.928;2022-11-20T02:37:54;97408.06;;;-8.13
20730;BMP280;10526;50.850;12.928;2022-11-20T02:42:16;97401.38;;;-8.14
20730;BMP280;10526;50.850;12.928;2022-11-20T02:46:38;97401.41;;;-8.19
20730;BMP280;10526;50.850;12.928;2022-11-20T02:51:00;97404.38;;;-8.26
20730;BMP280;10526;50.850;12.928;2022-11-20T02:55:22;97394.06;;;-8.31
20730;BMP280;10526;50.850;12.928;2022-11-20T02:59:44;97397.22;;;-8.34
20730;BMP280;10526;50.850;12.928;2022-11-20T03:04:06;97385.38;;;-8.40
20730;BMP280;10526;50.850;12.928;2022-11-20T03:08:28;97391.16;;;-8.49
20730;BMP280;10526;50.850;12.928;2022-11-20T03:12:55;97394.06;;;-8.55
20730;BMP280;10526;50.850;12.928;2022-11-20T03:17:17;97387.38;;;-8.56
20730;BMP280;10526;50.850;12.928;2022-11-20T03:21:39;97382.69;;;-8.54
20730;BMP280;10526;50.850;12.928;2022-11-20T03:26:20;97386.84;;;-8.58
20730;BMP280;10526;50.850;12.928;2022-11-20T03:30:42;97383.34;;;-8.68
20730;BMP280;10526;50.850;12.928;2022-11-20T03:35:05;97386.97;;;-8.69
20730;BMP280;10526;50.850;12.928;2022-11-20T03:39:26;97383.41;;;-8.73
20730;BMP280;10526;50.850;12.928;2022-11-20T03:44:00;97374.59;;;-8.72
20730;BMP280;10526;50.850;12.928;2022-11-20T03:48:23;97378.78;;;-8.76
20730;BMP280;10526;50.850;12.928;2022-11-20T03:52:45;97367.47;;;-8.80
20730;BMP280;10526;50.850;12.928;2022-11-20T03:57:07;97358.38;;;-8.72
20730;BMP280;10526;50.850;12.928;2022-11-20T04:01:34;97363.09;;;-8.55
20730;BMP280;10526;50.850;12.928;2022-11-20T04:06:21;97351.66;;;-8.49
20730;BMP280;10526;50.850;12.928;2022-11-20T04:10:43;97350.00;;;-8.40
20730;BMP280;10526;50.850;12.928;2022-11-20T04:15:06;97354.91;;;-8.38
20730;BMP280;10526;50.850;12.928;2022-11-20T04:19:28;97347.94;;;-8.38
20730;BMP280;10526;50.850;12.928;2022-11-20T04:23:51;97350.50;;;-8.38
20730;BMP280;10526;50.850;12.928;2022-11-20T04:28:14;97361.09;;;-8.39
20730;BMP280;10526;50.850;12.928;2022-11-20T04:32:36;97363.16;;;-8.36
20730;BMP280;10526;50.850;12.928;2022-11-20T04:36:58;97352.34;;;-8.38
20730;BMP280;10526;50.850;12.928;2022-11-20T04:41:22;97341.75;;;-8.37
20730;BMP280;10526;50.850;12.928;2022-11-20T04:45:54;97348.94;;;-8.34
20730;BMP280;10526;50.850;12.928;2022-11-20T04:50:16;97348.75;;;-8.42
20730;BMP280;10526;50.850;12.928;2022-11-20T04:54:38;97348.59;;;-8.51
20730;BMP280;10526;50.850;12.928;2022-11-20T04:59:01;97352.97;;;-8.52
20730;BMP280;10526;50.850;12.928;2022-11-20T05:03:23;97354.88;;;-8.57
20730;BMP280;10526;50.850;12.928;2022-11-20T05:07:45;97354.97;;;-8.68
20730;BMP280;10526;50.850;12.928;2022-11-20T05:12:08;97346.81;;;-8.80
20730;BMP280;10526;50.850;12.928;2022-11-20T05:16:30;97351.00;;;-8.89
20730;BMP280;10526;50.850;12.928;2022-11-20T05:20:57;97345.38;;;-8.91
20730;BMP280;10526;50.850;12.928;2022-11-20T05:25:19;97342.50;;;-8.90
20730;BMP280;10526;50.850;12.928;2022-11-20T05:29:41;97338.56;;;-8.82
20730;BMP280;10526;50.850;12.928;2022-11-20T05:34:03;97336.97;;;-8.73
20730;BMP280;10526;50.850;12.928;2022-11-20T05:38:25;97337.13;;;-8.64
20730;BMP280;10526;50.850;12.928;2022-11-20T05:42:47;97325.00;;;-8.63
20730;BMP280;10526;50.850;12.928;2022-11-20T05:47:09;97331.94;;;-8.40
20730;BMP280;10526;50.850;12.928;2022-11-20T05:51:31;97313.81;;;-8.54
20730;BMP280;10526;50.850;12.928;2022-11-20T05:55:59;97313.41;;;-8.66
20730;BMP280;10526;50.850;12.928;2022-11-20T06:00:22;97302.47;;;-8.82
20730;BMP280;10526;50.850;12.928;2022-11-20T06:04:43;97306.78;;;-8.96
20730;BMP280;10526;50.850;12.928;2022-11-20T06:09:05;97302.22;;;-9.09
20730;BMP280;10526;50.850;12.928;2022-11-20T06:13:27;97310.03;;;-9.20
20730;BMP280;10526;50.850;12.928;2022-11-20T06:17:55;97320.16;;;-9.23
20730;BMP280;10526;50.850;12.928;2022-11-20T06:22:17;97313.72;;;-9.26
20730;BMP280;10526;50.850;12.928;2022-11-20T06:26:39;97320.94;;;-9.28
20730;BMP280;10526;50.850;12.928;2022-11-20T06:31:01;97320.44;;;-9.30
20730;BMP280;10526;50.850;12.928;2022-11-20T06:35:23;97316.78;;;-9.24
20730;BMP280;10526;50.850;12.928;2022-11-20T06:39:45;97314.44;;;-9.20
20730;BMP280;10526;50.850;12.928;2022-11-20T06:44:07;97316.94;;;-9.10
20730;BMP280;10526;50.850;12.928;2022-11-20T06:48:30;97315.06;;;-9.04
20730;BMP280;10526;50.850;12.928;2022-11-20T06:52:52;97307.03;;;-8.98
20730;BMP280;10526;50.850;12.928;2022-11-20T06:57:13;97313.34;;;-8.85
20730;BMP280;10526;50.850;12.928;2022-11-20T07:01:35;97318.75;;;-8.57
20730;BMP280;10526;50.850;12.928;2022-11-20T07:05:58;97309.91;;;-8.32
20730;BMP280;10526;50.850;12.928;2022-11-20T07:10:21;97317.59;;;-8.08
20730;BMP280;10526;50.850;12.928;2022-11-20T07:14:43;97309.94;;;-7.94
20730;BMP280;10526;50.850;12.928;2022-11-20T07:19:05;97330.56;;;-6.64
20730;BMP280;10526;50.850;12.928;2022-11-20T07:23:27;97322.94;;;-3.62
20730;BMP280;10526;50.850;12.928;2022-11-20T07:27:49;97334.47;;;-0.79
20730;BMP280;10526;50.850;12.928;2022-11-20T07:32:11;97329.53;;;0.92
20730;BMP280;10526;50.850;12.928;2022-11-20T07:36:33;97332.03;;;2.17
20730;BMP280;10526;50.850;12.928;2022-11-20T07:40:56;97327.78;;;3.38
20730;BMP280;10526;50.850;12.928;2022-11-20T07:45:20;97337.22;;;5.16
20730;BMP280;10526;50.850;12.928;2022-11-20T07:49:42;97342.78;;;6.34
20730;BMP280;10526;50.850;12.928;2022-11-20T07:54:04;97334.09;;;4.96
20730;BMP280;10526;50.850;12.928;2022-11-20T07:58:27;97331.59;;;2.38
20730;BMP280;10526;50.850;12.928;2022-11-20T08:02:50;97330.75;;;0.31
20730;BMP280;10526;50.850;12.928;2022-11-20T08:07:12;97324.34;;;-1.05
20730;BMP280;10526;50.850;12.928;2022-11-20T08:11:34;97326.63;;;-1.28
20730;BMP280;10526;50.850;12.928;2022-11-20T08:16:14;97318.97;;;-1.45
20730;BMP280;10526;50.850;12.928;2022-11-20T08:20:37;97307.84;;;-1.66
20730;BMP280;10526;50.850;12.928;2022-11-20T08:24:59;97302.06;;;-2.05
20730;BMP280;10526;50.850;12.928;2022-11-20T08:29:21;97296.31;;;-2.53
20730;BMP280;10526;50.850;12.928;2022-11-20T08:33:43;97292.75;;;-2.48
20730;BMP280;10526;50.850;12.928;2022-11-20T08:38:05;97289.88;;;-2.13
20730;BMP280;10526;50.850;12.928;2022-11-20T08:42:27;97291.13;;;0.17
20730;BMP280;10526;50.850;12.928;2022-11-20T08:46:49;97287.31;;;2.13
20730;BMP280;10526;50.850;12.928;2022-11-20T08:51:12;97297.09;;;3.49
20730;BMP280;10526;50.850;12.928;2022-11-20T08:55:34;97295.84;;;2.79
20730;BMP280;10526;50.850;12.928;2022-11-20T08:59:59;97282.88;;;1.94
20730;BMP280;10526;50.850;12.928;2022-11-20T09:04:28;97286.06;;;1.45
20730;BMP280;10526;50.850;12.928;2022-11-20T09:08:54;97295.13;;;1.29
20730;BMP280;10526;50.850;12.928;2022-11-20T09:13:16;97285.88;;;1.35
20730;BMP280;10526;50.850;12.928;2022-11-20T09:17:38;97282.38;;;1.27
20730;BMP280;10526;50.850;12.928;2022-11-20T09:22:00;97274.16;;;1.29
20730;BMP280;10526;50.850;12.928;2022-11-20T09:26:22;97277.31;;;1.38
20730;BMP280;10526;50.850;12.928;2022-11-20T09:30:44;97271.16;;;1.69
20730;BMP280;10526;50.850;12.928;2022-11-20T09:35:06;97271.91;;;1.89
20730;BMP280;10526;50.850;12.928;2022-11-20T09:39:28;97262.63;;;1.95
20730;BMP280;10526;50.850;12.928;2022-11-20T09:53:50;97262.34;;;1.19
20730;BMP280;10526;50.850;12.928;2022-11-20T09:58:42;97256.31;;;0.99
20730;BMP280;10526;50.850;12.928;2022-11-20T10:03:16;97258.44;;;0.93
20730;BMP280;10526;50.850;12.928;2022-11-20T10:07:52;97266.72;;;0.95
20730;BMP280;10526;50.850;12.928;2022-11-20T10:12:59;97264.91;;;1.15
20730;BMP280;10526;50.850;12.928;2022-11-20T10:22:47;97272.44;;;1.17
20730;BMP280;10526;50.850;12.928;2022-11-20T10:31:55;97259.31;;;1.36
20730;BMP280;10526;50.850;12.928;2022-11-20T10:36:27;97262.28;;;1.54
20730;BMP280;10526;50.850;12.928;2022-11-20T10:41:02;97254.06;;;1.56
20730;BMP280;10526;50.850;12.928;2022-11-20T10:45:58;97251.28;;;1.48
20730;BMP280;10526;50.850;12.928;2022-11-20T10:50:22;97252.34;;;1.44
20730;BMP280;10526;50.850;12.928;2022-11-20T11:03:51;97238.59;;;1.93
20730;BMP280;10526;50.850;12.928;2022-11-20T11:08:19;97232.06;;;2.06
20730;BMP280;10526;50.850;12.928;2022-11-20T11:12:45;97235.81;;;2.28
20730;BMP280;10526;50.850;12.928;2022-11-20T11:17:31;97238.94;;;2.64
20730;BMP280;10526;50.850;12.928;2022-11-20T11:21:57;97232.34;;;2.77
20730;BMP280;10526;50.850;12.928;2022-11-20T11:26:22;97215.50;;;2.52
20730;BMP280;10526;50.850;12.928;2022-11-20T11:30:45;97209.06;;;2.49
20730;BMP280;10526;50.850;12.928;2022-11-20T11:35:25;97198.31;;;2.58
20730;BMP280;10526;50.850;12.928;2022-11-20T11:39:48;97205.03;;;2.55
20730;BMP280;10526;50.850;12.928;2022-11-20T11:44:33;97207.19;;;2.49
20730;BMP280;10526;50.850;12.928;2022-11-20T11:49:18;97201.84;;;2.42
20730;BMP280;10526;50.850;12.928;2022-11-20T11:53:41;97194.56;;;2.59
20730;BMP280;10526;50.850;12.928;2022-11-20T11:58:33;97188.66;;;2.69
20730;BMP280;10526;50.850;12.928;2022-11-20T12:03:39;97184.50;;;2.64
20730;BMP280;10526;50.850;12.928;2022-11-20T12:18:12;97181.78;;;2.57
20730;BMP280;10526;50.850;12.928;2022-11-20T12:37:00;97158.28;;;2.15
20730;BMP280;10526;50.850;12.928;2022-11-20T12:51:23;97172.78;;;2.05
20730;BMP280;10526;50.850;12.928;2022-11-20T13:00:33;97156.63;;;1.80
20730;BMP280;10526;50.850;12.928;2022-11-20T13:09:33;97155.69;;;1.69
20730;BMP280;10526;50.850;12.928;2022-11-20T13:14:14;97148.88;;;1.64
20730;BMP280;10526;50.850;12.928;2022-11-20T13:18:40;97164.50;;;1.57
20730;BMP280;10526;50.850;12.928;2022-11-20T13:23:06;97151.69;;;1.52
20730;BMP280;10526;50.850;12.928;2022-11-20T13:27:28;97161.41;;;1.52
20730;BMP280;10526;50.850;12.928;2022-11-20T13:32:18;97154.72;;;1.54
20730;BMP280;10526;50.850;12.928;2022-11-20T13:36:54;97157.75;;;1.56
20730;BMP280;10526;50.850;12.928;2022-11-20T13:41:35;97156.91;;;1.52
20730;BMP280;10526;50.850;12.928;2022-11-20T13:46:05;97163.53;;;1.46
20730;BMP280;10526;50.850;12.928;2022-11-20T13:55:55;97155.56;;;1.39
20730;BMP280;10526;50.850;12.928;2022-11-20T14:00:25;97150.09;;;1.47
20730;BMP280;10526;50.850;12.928;2022-11-20T14:04:51;97152.44;;;1.53
20730;BMP280;10526;50.850;12.928;2022-11-20T14:09:28;97147.34;;;1.40
20730;BMP280;10526;50.850;12.928;2022-11-20T14:14:20;97164.78;;;1.29
20730;BMP280;10526;50.850;12.928;2022-11-20T14:18:43;97158.66;;;1.02
20730;BMP280;10526;50.850;12.928;2022-11-20T14:23:10;97152.13;;;0.77
20730;BMP280;10526;50.850;12.928;2022-11-20T14:27:41;97152.09;;;0.57
20730;BMP280;10526;50.850;12.928;2022-11-20T14:32:04;97162.28;;;0.43
20730;BMP280;10526;50.850;12.928;2022-11-20T14:36:26;97153.84;;;0.34
20730;BMP280;10526;50.850;12.928;2022-11-20T14:40:49;97154.81;;;0.26
20730;BMP280;10526;50.850;12.928;2022-11-20T14:45:12;97151.88;;;0.11
20730;BMP280;10526;50.850;12.928;2022-11-20T14:49:35;97146.91;;;-0.10
20730;BMP280;10526;50.850;12.928;2022-11-20T14:54:11;97153.91;;;-0.30
20730;BMP280;10526;50.850;12.928;2022-11-20T14:58:34;97156.38;;;-0.49
20730;BMP280;10526;50.850;12.928;2022-11-20T15:02:56;97148.84;;;-0.66
20730;BMP280;10526;50.850;12.928;2022-11-20T15:07:41;97160.84;;;-0.78
20730;BMP280;10526;50.850;12.928;2022-11-20T15:12:17;97156.69;;;-0.94
20730;BMP280;10526;50.850;12.928;2022-11-20T15:16:39;97157.72;;;-1.11
20730;BMP280;10526;50.850;12.928;2022-11-20T15:21:06;97159.06;;;-1.30
20730;BMP280;10526;50.850;12.928;2022-11-20T15:25:31;97153.94;;;-1.51
20730;BMP280;10526;50.850;12.928;2022-11-20T15:29:53;97147.47;;;-1.69
20730;BMP280;10526;50.850;12.928;2022-11-20T15:34:15;97147.34;;;-1.85
20730;BMP280;10526;50.850;12.928;2022-11-20T15:38:37;97156.13;;;-2.02
20730;BMP280;10526;50.850;12.928;2022-11-20T15:42:59;97149.56;;;-2.20
20730;BMP280;10526;50.850;12.928;2022-11-20T15:47:34;97145.22;;;-2.16
20730;BMP280;10526;50.850;12.928;2022-11-20T15:51:57;97146.09;;;-2.12
20730;BMP280;10526;50.850;12.928;2022-11-20T15:56:19;97135.13;;;-2.17
20730;BMP280;10526;50.850;12.928;2022-11-20T16:00:41;97137.41;;;-2.16
20730;BMP280;10526;50.850;12.928;2022-11-20T16:05:04;97150.25;;;-2.11
20730;BMP280;10526;50.850;12.928;2022-11-20T16:09:31;97146.78;;;-2.15
20730;BMP280;10526;50.850;12.928;2022-11-20T16:13:52;97149.16;;;-2.10
20730;BMP280;10526;50.850;12.928;2022-11-20T16:18:33;97150.69;;;-2.09
20730;BMP280;10526;50.850;12.928;2022-11-20T16:22:56;97147.66;;;-2.11
20730;BMP280;10526;50.850;12.928;2022-11-20T16:27:17;97134.59;;;-2.11
20730;BMP280;10526;50.850;12.928;2022-11-20T16:31:39;97131.25;;;-2.11
20730;BMP280;10526;50.850;12.928;2022-11-20T16:36:15;97136.75;;;-2.13
20730;BMP280;10526;50.850;12.928;2022-11-20T16:40:37;97135.25;;;-2.26
20730;BMP280;10526;50.850;12.928;2022-11-20T16:44:59;97130.44;;;-2.24
20730;BMP280;10526;50.850;12.928;2022-11-20T16:49:21;97129.94;;;-2.17
20730;BMP280;10526;50.850;12.928;2022-11-20T16:53:43;97138.97;;;-2.15
20730;BMP280;10526;50.850;12.928;2022-11-20T16:58:05;97127.53;;;-2.23
20730;BMP280;10526;50.850;12.928;2022-11-20T17:02:27;97121.34;;;-2.30
20730;BMP280;10526;50.850;12.928;2022-11-20T17:06:49;97116.06;;;-2.43
20730;BMP280;10526;50.850;12.928;2022-11-20T17:11:17;97126.59;;;-2.51
20730;BMP280;10526;50.850;12.928;2022-11-20T17:15:42;97129.81;;;-2.54
20730;BMP280;10526;50.850;12.928;2022-11-20T17:20:04;97124.50;;;-2.58
20730;BMP280;10526;50.850;12.928;2022-11-20T17:24:26;97110.72;;;-2.58
20730;BMP280;10526;50.850;12.928;2022-11-20T17:29:05;97112.88;;;-2.60
20730;BMP280;10526;50.850;12.928;2022-11-20T17:33:28;97098.09;;;-2.69
20730;BMP280;10526;50.850;12.928;2022-11-20T17:37:49;97102.19;;;-2.80
20730;BMP280;10526;50.850;12.928;2022-11-20T17:42:11;97104.44;;;-2.78
20730;BMP280;10526;50.850;12.928;2022-11-20T17:46:50;97106.84;;;-2.73
20730;BMP280;10526;50.850;12.928;2022-11-20T17:51:21;97107.69;;;-2.81
20730;BMP280;10526;50.850;12.928;2022-11-20T17:55:43;97103.91;;;-2.84
20730;BMP280;10526;50.850;12.928;2022-11-20T18:00:24;97091.50;;;-2.87
20730;BMP280;10526;50.850;12.928;2022-11-20T18:04:46;97108.22;;;-2.88
20730;BMP280;10526;50.850;12.928;2022-11-20T18:09:09;97117.34;;;-2.82
20730;BMP280;10526;50.850;12.928;2022-11-20T18:13:31;97113.66;;;-2.81
20730;BMP280;10526;50.850;12.928;2022-11-20T18:18:13;97108.00;;;-2.95
20730;BMP280;10526;50.850;12.928;2022-11-20T18:22:36;97086.75;;;-3.06
20730;BMP280;10526;50.850;12.928;2022-11-20T18:26:58;97090.72;;;-3.21
20730;BMP280;10526;50.850;12.928;2022-11-20T18:31:20;97077.88;;;-3.26
20730;BMP280;10526;50.850;12.928;2022-11-20T18:35:42;97074.22;;;-3.25
20730;BMP280;10526;50.850;12.928;2022-11-20T18:40:05;97072.28;;;-3.16
20730;BMP280;10526;50.850;12.928;2022-11-20T18:44:30;97065.56;;;-3.17
20730;BMP280;10526;50.850;12.928;2022-11-20T18:49:12;97054.84;;;-3.15
20730;BMP280;10526;50.850;12.928;2022-11-20T18:53:34;97044.41;;;-2.94
20730;BMP280;10526;50.850;12.928;2022-11-20T18:57:56;97030.22;;;-2.72
20730;BMP280;10526;50.850;12.928;2022-11-20T19:02:20;97033.00;;;-2.56
20730;BMP280;10526;50.850;12.928;2022-11-20T19:06:44;97025.41;;;-2.49
20730;BMP280;10526;50.850;12.928;2022-11-20T19:11:08;97019.50;;;-2.46
20730;BMP280;10526;50.850;12.928;2022-11-20T19:15:33;97022.78;;;-2.37
20730;BMP280;10526;50.850;12.928;2022-11-20T19:19:56;97008.66;;;-2.36
20730;BMP280;10526;50.850;12.928;2022-11-20T19:24:18;97017.34;;;-2.44
20730;BMP280;10526;50.850;12.928;2022-11-20T19:28:40;97014.97;;;-2.49
20730;BMP280;10526;50.850;12.928;2022-11-20T19:33:03;97011.69;;;-2.58
20730;BMP280;10526;50.850;12.928;2022-11-20T19:37:25;96999.13;;;-2.56
20730;BMP280;10526;50.850;12.928;2022-11-20T19:41:47;96991.50;;;-2.49
20730;BMP280;10526;50.850;12.928;2022-11-20T19:46:09;96983.78;;;-2.33
20730;BMP280;10526;50.850;12.928;2022-11-20T19:50:31;96976.63;;;-2.24
20730;BMP280;10526;50.850;12.928;2022-11-20T19:54:53;96989.00;;;-2.21
20730;BMP280;10526;50.850;12.928;2022-11-20T19:59:15;96983.03;;;-2.22
20730;BMP280;10526;50.850;12.928;2022-11-20T20:03:38;96986.19;;;-2.16
20730;BMP280;10526;50.850;12.928;2022-11-20T20:08:00;96977.47;;;-2.08
20730;BMP280;10526;50.850;12.928;2022-11-20T20:12:22;96974.53;;;-2.06
20730;BMP280;10526;50.850;12.928;2022-11-20T20:16:45;96959.00;;;-2.03
20730;BMP280;10526;50.850;12.928;2022-11-20T20:21:12;96943.44;;;-1.99
20730;BMP280;10526;50.850;12.928;2022-11-20T20:25:37;96932.78;;;-1.94
20730;BMP280;10526;50.850;12.928;2022-11-20T20:29:59;96926.25;;;-1.88
20730;BMP280;10526;50.850;12.928;2022-11-20T20:34:21;96907.97;;;-1.76
20730;BMP280;10526;50.850;12.928;2022-11-20T20:38:44;96903.53;;;-1.59
20730;BMP280;10526;50.850;12.928;2022-11-20T20:43:06;96894.56;;;-1.46
20730;BMP280;10526;50.850;12.928;2022-11-20T20:47:35;96896.44;;;-1.31
20730;BMP280;10526;50.850;12.928;2022-11-20T20:51:58;96895.59;;;-1.19
20730;BMP280;10526;50.850;12.928;2022-11-20T20:56:20;96891.03;;;-1.06
20730;BMP280;10526;50.850;12.928;2022-11-20T21:00:42;96893.16;;;-0.96
20730;BMP280;10526;50.850;12.928;2022-11-20T21:05:04;96890.75;;;-0.85
20730;BMP280;10526;50.850;12.928;2022-11-20T21:09:26;96882.06;;;-0.74
20730;BMP280;10526;50.850;12.928;2022-11-20T21:13:49;96867.63;;;-0.67
20730;BMP280;10526;50.850;12.928;2022-11-20T21:18:11;96849.81;;;-0.62
20730;BMP280;10526;50.850;12.928;2022-11-20T21:22:33;96850.59;;;-0.61
20730;BMP280;10526;50.850;12.928;2022-11-20T21:26:57;96839.19;;;-0.53
20730;BMP280;10526;50.850;12.928;2022-11-20T21:31:22;96821.03;;;-0.46
20730;BMP280;10526;50.850;12.928;2022-11-20T21:35:47;96819.66;;;-0.40
20730;BMP280;10526;50.850;12.928;2022-11-20T21:40:09;96810.59;;;-0.27
20730;BMP280;10526;50.850;12.928;2022-11-20T21:44:31;96803.34;;;-0.14
20730;BMP280;10526;50.850;12.928;2022-11-20T21:48:53;96799.00;;;-0.06
20730;BMP280;10526;50.850;12.928;2022-11-20T21:53:15;96782.63;;;-0.03
20730;BMP280;10526;50.850;12.928;2022-11-20T21:57:38;96776.22;;;-0.06
20730;BMP280;10526;50.850;12.928;2022-11-20T22:02:00;96780.00;;;-0.03
20730;BMP280;10526;50.850;12.928;2022-11-20T22:06:24;96775.91;;;-0.01
20730;BMP280;10526;50.850;12.928;2022-11-20T22:10:56;96767.31;;;-0.01
20730;BMP280;10526;50.850;12.928;2022-11-20T22:15:18;96768.56;;;0.05
20730;BMP280;10526;50.850;12.928;2022-11-20T22:20:00;96763.03;;;0.10
20730;BMP280;10526;50.850;12.928;2022-11-20T22:24:22;96756.97;;;0.06
20730;BMP280;10526;50.850;12.928;2022-11-20T22:28:50;96741.22;;;0.03
20730;BMP280;10526;50.850;12.928;2022-11-20T22:33:12;96738.28;;;0.04
20730;BMP280;10526;50.850;12.928;2022-11-20T22:37:34;96730.81;;;0.06
20730;BMP280;10526;50.850;12.928;2022-11-20T22:41:56;96723.47;;;0.15
20730;BMP280;10526;50.850;12.928;2022-11-20T22:46:19;96734.59;;;0.09
20730;BMP280;10526;50.850;12.928;2022-11-20T22:50:41;96725.53;;;0.03
20730;BMP280;10526;50.850;12.928;2022-11-20T22:55:03;96711.16;;;-0.07
20730;BMP280;10526;50.850;12.928;2022-11-20T22:59:25;96707.94;;;-0.20
20730;BMP280;10526;50.850;12.928;2022-11-20T23:03:50;96709.00;;;-0.25
20730;BMP280;10526;50.850;12.928;2022-11-20T23:08:12;96706.88;;;-0.19
20730;BMP280;10526;50.850;12.928;2022-11-20T23:12:34;96693.13;;;-0.12
20730;BMP280;10526;50.850;12.928;2022-11-20T23:16:57;96679.06;;;-0.04
20730;BMP280;10526;50.850;12.928;2022-11-20T23:21:20;96675.34;;;-0.03
20730;BMP280;10526;50.850;12.928;2022-11-20T23:25:45;96663.34;;;-0.04
20730;BMP280;10526;50.850;12.928;2022-11-20T23:30:10;96660.84;;;0.03
20730;BMP280;10526;50.850;12.928;2022-11-20T23:34:32;96660.28;;;0.13
20730;BMP280;10526;50.850;12.928;2022-11-20T23:38:55;96654.09;;;0.25
20730;BMP280;10526;50.850;12.928;2022-11-20T23:43:19;96651.97;;;0.38
20730;BMP280;10526;50.850;12.928;2022-11-20T23:47:41;96647.34;;;0.54
20730;BMP280;10526;50.850;12.928;2022-11-20T23:52:03;96632.91;;;0.67
20730;BMP280;10526;50.850;12.928;2022-11-20T23:56:25;96623.41;;;0.86
